sensor_id;sensor_type;location;lat;lon;timestamp;P1;durP1;ratioP1;P2;durP2;ratioP2
21420;SDS011;10871;50.144;8.428;2023-02-05T00:01:08;12.52;;;6.10;;
21420;SDS011;10871;50.144;8.428;2023-02-05T00:03:35;8.90;;;5.65;;
21420;SDS011;10871;50.144;8.428;2023-02-05T00:06:02;10.30;;;6.50;;
21420;SDS011;10871;50.144;8.428;2023-02-05T00:08:28;13.90;;;7.55;;
21420;SDS011;10871;50.144;8.428;2023-02-05T00:10:55;11.38;;;7.47;;
21420;SDS011;10871;50.144;8.428;2023-02-05T00:13:22;11.80;;;6.72;;
21420;SDS011;10871;50.144;8.428;2023-02-05T00:15:48;17.10;;;8.00;;
21420;SDS011;10871;50.144;8.428;2023-02-05T00:18:14;14.75;;;8.10;;
21420;SDS011;10871;50.144;8.428;2023-02-05T00:20:41;14.70;;;7.75;;
21420;SDS011;10871;50.144;8.428;2023-02-05T00:23:07;17.52;;;7.72;;
21420;SDS011;10871;50.144;8.428;2023-02-05T00:25:33;15.00;;;7.57;;
21420;SDS011;10871;50.144;8.428;2023-02-05T00:28:00;15.95;;;7.00;;
21420;SDS011;10871;50.144;8.428;2023-02-05T00:30:27;15.68;;;7.25;;
21420;SDS011;10871;50.144;8.428;2023-02-05T00:32:53;11.30;;;5.03;;
21420;SDS011;10871;50.144;8.428;2023-02-05T00:35:19;13.75;;;5.10;;
21420;SDS011;10871;50.144;8.428;2023-02-05T00:37:46;11.07;;;4.32;;
21420;SDS011;10871;50.144;8.428;2023-02-05T00:40:12;9.90;;;3.97;;
21420;SDS011;10871;50.144;8.428;2023-02-05T00:42:40;14.73;;;5.13;;
21420;SDS011;10871;50.144;8.428;2023-02-05T00:45:06;9.73;;;5.07;;
21420;SDS011;10871;50.144;8.428;2023-02-05T00:47:33;11.25;;;5.28;;
21420;SDS011;10871;50.144;8.428;2023-02-05T00:49:59;10.80;;;5.85;;
21420;SDS011;10871;50.144;8.428;2023-02-05T00:52:25;9.68;;;5.47;;
21420;SDS011;10871;50.144;8.428;2023-02-05T00:54:52;10.20;;;5.43;;
21420;SDS011;10871;50.144;8.428;2023-02-05T00:57:18;11.85;;;5.72;;
21420;SDS011;10871;50.144;8.428;2023-02-05T00:59:50;11.60;;;5.60;;
21420;SDS011;10871;50.144;8.428;2023-02-05T01:02:18;11.52;;;5.95;;
21420;SDS011;10871;50.144;8.428;2023-02-05T01:04:49;10.15;;;5.68;;
21420;SDS011;10871;50.144;8.428;2023-02-05T01:07:16;15.30;;;6.25;;
21420;SDS011;10871;50.144;8.428;2023-02-05T01:09:42;12.32;;;6.97;;
21420;SDS011;10871;50.144;8.428;2023-02-05T01:12:09;12.27;;;6.28;;
21420;SDS011;10871;50.144;8.428;2023-02-05T01:14:35;11.98;;;6.10;;
21420;SDS011;10871;50.144;8.428;2023-02-05T01:17:01;13.98;;;6.55;;
21420;SDS011;10871;50.144;8.428;2023-02-05T01:19:27;14.13;;;6.50;;
21420;SDS011;10871;50.144;8.428;2023-02-05T01:21:54;15.57;;;6.65;;
21420;SDS011;10871;50.144;8.428;2023-02-05T01:24:20;17.33;;;6.72;;
21420;SDS011;10871;50.144;8.428;2023-02-05T01:26:46;11.35;;;5.95;;
21420;SDS011;10871;50.144;8.428;2023-02-05T01:29:13;14.30;;;5.78;;
21420;SDS011;10871;50.144;8.428;2023-02-05T01:31:40;9.98;;;5.95;;
21420;SDS011;10871;50.144;8.428;2023-02-05T01:34:06;8.50;;;5.30;;
21420;SDS011;10871;50.144;8.428;2023-02-05T01:36:32;9.30;;;5.28;;
21420;SDS011;10871;50.144;8.428;2023-02-05T01:38:59;11.85;;;5.60;;
21420;SDS011;10871;50.144;8.428;2023-02-05T01:41:26;10.48;;;5.70;;
21420;SDS011;10871;50.144;8.428;2023-02-05T01:44:12;13.43;;;5.50;;
21420;SDS011;10871;50.144;8.428;2023-02-05T01:46:39;11.50;;;6.00;;
21420;SDS011;10871;50.144;8.428;2023-02-05T01:49:07;14.65;;;6.70;;
21420;SDS011;10871;50.144;8.428;2023-02-05T01:51:35;13.07;;;6.55;;
21420;SDS011;10871;50.144;8.428;2023-02-05T01:54:02;13.93;;;6.68;;
21420;SDS011;10871;50.144;8.428;2023-02-05T01:56:33;13.55;;;7.03;;
21420;SDS011;10871;50.144;8.428;2023-02-05T01:59:03;15.75;;;6.43;;
21420;SDS011;10871;50.144;8.428;2023-02-05T02:01:30;11.77;;;6.40;;
21420;SDS011;10871;50.144;8.428;2023-02-05T02:03:58;12.38;;;6.80;;
21420;SDS011;10871;50.144;8.428;2023-02-05T02:06:25;10.70;;;6.47;;
21420;SDS011;10871;50.144;8.428;2023-02-05T02:08:52;13.70;;;6.75;;
21420;SDS011;10871;50.144;8.428;2023-02-05T02:11:19;12.50;;;6.75;;
21420;SDS011;10871;50.144;8.428;2023-02-05T02:13:46;12.93;;;6.82;;
21420;SDS011;10871;50.144;8.428;2023-02-05T02:16:13;15.75;;;6.80;;
21420;SDS011;10871;50.144;8.428;2023-02-05T02:18:40;12.65;;;6.28;;
21420;SDS011;10871;50.144;8.428;2023-02-05T02:29:15;11.98;;;5.63;;
21420;SDS011;10871;50.144;8.428;2023-02-05T02:31:45;10.38;;;6.15;;
21420;SDS011;10871;50.144;8.428;2023-02-05T02:34:17;9.98;;;6.40;;
21420;SDS011;10871;50.144;8.428;2023-02-05T02:39:16;13.13;;;7.00;;
21420;SDS011;10871;50.144;8.428;2023-02-05T02:44:16;11.55;;;6.68;;
21420;SDS011;10871;50.144;8.428;2023-02-05T02:47:03;13.88;;;6.43;;
21420;SDS011;10871;50.144;8.428;2023-02-05T02:49:41;13.55;;;7.28;;
21420;SDS011;10871;50.144;8.428;2023-02-05T02:52:10;10.90;;;6.95;;
21420;SDS011;10871;50.144;8.428;2023-02-05T02:54:38;12.75;;;6.93;;
21420;SDS011;10871;50.144;8.428;2023-02-05T02:57:06;12.73;;;7.40;;
21420;SDS011;10871;50.144;8.428;2023-02-05T02:59:34;16.52;;;7.00;;
21420;SDS011;10871;50.144;8.428;2023-02-05T03:02:02;14.65;;;7.18;;
21420;SDS011;10871;50.144;8.428;2023-02-05T03:04:31;15.65;;;7.57;;
21420;SDS011;10871;50.144;8.428;2023-02-05T03:07:14;11.90;;;7.05;;
21420;SDS011;10871;50.144;8.428;2023-02-05T03:09:49;11.55;;;6.40;;
21420;SDS011;10871;50.144;8.428;2023-02-05T03:12:17;12.07;;;4.63;;
21420;SDS011;10871;50.144;8.428;2023-02-05T03:14:44;7.80;;;4.20;;
21420;SDS011;10871;50.144;8.428;2023-02-05T03:17:11;8.98;;;4.35;;
21420;SDS011;10871;50.144;8.428;2023-02-05T03:19:52;14.13;;;5.10;;
21420;SDS011;10871;50.144;8.428;2023-02-05T03:22:21;11.95;;;5.18;;
21420;SDS011;10871;50.144;8.428;2023-02-05T03:24:49;15.93;;;5.03;;
21420;SDS011;10871;50.144;8.428;2023-02-05T03:27:15;12.70;;;5.20;;
21420;SDS011;10871;50.144;8.428;2023-02-05T03:29:43;13.30;;;4.97;;
21420;SDS011;10871;50.144;8.428;2023-02-05T03:34:53;10.30;;;5.07;;
21420;SDS011;10871;50.144;8.428;2023-02-05T03:37:38;12.73;;;5.20;;
21420;SDS011;10871;50.144;8.428;2023-02-05T03:40:49;14.70;;;5.97;;
21420;SDS011;10871;50.144;8.428;2023-02-05T03:46:44;12.57;;;5.93;;
21420;SDS011;10871;50.144;8.428;2023-02-05T03:48:56;11.85;;;5.90;;
21420;SDS011;10871;50.144;8.428;2023-02-05T03:51:43;11.10;;;5.68;;
21420;SDS011;10871;50.144;8.428;2023-02-05T03:54:22;14.68;;;6.32;;
21420;SDS011;10871;50.144;8.428;2023-02-05T03:59:18;11.63;;;6.43;;
21420;SDS011;10871;50.144;8.428;2023-02-05T04:01:45;9.45;;;5.35;;
21420;SDS011;10871;50.144;8.428;2023-02-05T04:04:13;11.10;;;6.05;;
21420;SDS011;10871;50.144;8.428;2023-02-05T04:06:39;10.27;;;5.35;;
21420;SDS011;10871;50.144;8.428;2023-02-05T04:09:05;10.45;;;5.32;;
21420;SDS011;10871;50.144;8.428;2023-02-05T04:11:33;13.20;;;5.32;;
21420;SDS011;10871;50.144;8.428;2023-02-05T04:14:02;9.65;;;4.65;;
21420;SDS011;10871;50.144;8.428;2023-02-05T04:16:28;11.52;;;5.43;;
21420;SDS011;10871;50.144;8.428;2023-02-05T04:18:57;12.65;;;5.00;;
21420;SDS011;10871;50.144;8.428;2023-02-05T04:21:24;10.32;;;5.13;;
21420;SDS011;10871;50.144;8.428;2023-02-05T04:23:51;13.80;;;5.53;;
21420;SDS011;10871;50.144;8.428;2023-02-05T04:26:18;14.57;;;6.13;;
21420;SDS011;10871;50.144;8.428;2023-02-05T04:28:54;13.43;;;5.32;;
21420;SDS011;10871;50.144;8.428;2023-02-05T04:31:21;11.02;;;5.38;;
21420;SDS011;10871;50.144;8.428;2023-02-05T04:33:48;10.95;;;5.57;;
21420;SDS011;10871;50.144;8.428;2023-02-05T04:36:16;10.02;;;5.10;;
21420;SDS011;10871;50.144;8.428;2023-02-05T04:38:43;8.57;;;4.97;;
21420;SDS011;10871;50.144;8.428;2023-02-05T04:41:09;11.95;;;5.70;;
21420;SDS011;10871;50.144;8.428;2023-02-05T04:43:35;9.90;;;5.18;;
21420;SDS011;10871;50.144;8.428;2023-02-05T04:46:08;9.60;;;5.85;;
21420;SDS011;10871;50.144;8.428;2023-02-05T04:48:34;11.93;;;5.17;;
21420;SDS011;10871;50.144;8.428;2023-02-05T04:51:04;12.93;;;5.78;;
21420;SDS011;10871;50.144;8.428;2023-02-05T04:53:31;9.77;;;5.63;;
21420;SDS011;10871;50.144;8.428;2023-02-05T04:56:04;11.80;;;5.43;;
21420;SDS011;10871;50.144;8.428;2023-02-05T04:58:31;8.52;;;5.43;;
21420;SDS011;10871;50.144;8.428;2023-02-05T05:00:57;10.82;;;5.40;;
21420;SDS011;10871;50.144;8.428;2023-02-05T05:03:23;13.30;;;5.45;;
21420;SDS011;10871;50.144;8.428;2023-02-05T05:05:50;10.45;;;5.50;;
21420;SDS011;10871;50.144;8.428;2023-02-05T05:08:17;13.45;;;5.78;;
21420;SDS011;10871;50.144;8.428;2023-02-05T05:10:44;12.00;;;5.60;;
21420;SDS011;10871;50.144;8.428;2023-02-05T05:13:10;11.60;;;6.00;;
21420;SDS011;10871;50.144;8.428;2023-02-05T05:15:36;12.85;;;5.85;;
21420;SDS011;10871;50.144;8.428;2023-02-05T05:18:03;10.48;;;5.95;;
21420;SDS011;10871;50.144;8.428;2023-02-05T05:20:29;12.32;;;5.85;;
21420;SDS011;10871;50.144;8.428;2023-02-05T05:22:56;13.70;;;5.78;;
21420;SDS011;10871;50.144;8.428;2023-02-05T05:25:22;12.57;;;5.40;;
21420;SDS011;10871;50.144;8.428;2023-02-05T05:27:48;14.32;;;5.60;;
21420;SDS011;10871;50.144;8.428;2023-02-05T05:30:15;11.60;;;5.20;;
21420;SDS011;10871;50.144;8.428;2023-02-05T05:32:41;10.43;;;5.47;;
21420;SDS011;10871;50.144;8.428;2023-02-05T05:35:07;13.15;;;5.57;;
21420;SDS011;10871;50.144;8.428;2023-02-05T05:37:34;10.73;;;5.32;;
21420;SDS011;10871;50.144;8.428;2023-02-05T05:40:00;15.15;;;6.10;;
21420;SDS011;10871;50.144;8.428;2023-02-05T05:42:45;8.07;;;6.10;;
21420;SDS011;10871;50.144;8.428;2023-02-05T05:45:29;13.77;;;6.63;;
21420;SDS011;10871;50.144;8.428;2023-02-05T05:47:56;12.15;;;6.22;;
21420;SDS011;10871;50.144;8.428;2023-02-05T05:50:22;15.35;;;6.72;;
21420;SDS011;10871;50.144;8.428;2023-02-05T05:52:49;14.45;;;7.38;;
21420;SDS011;10871;50.144;8.428;2023-02-05T05:55:15;17.10;;;7.38;;
21420;SDS011;10871;50.144;8.428;2023-02-05T05:57:41;12.48;;;6.57;;
21420;SDS011;10871;50.144;8.428;2023-02-05T06:00:08;13.68;;;7.03;;
21420;SDS011;10871;50.144;8.428;2023-02-05T06:02:38;13.73;;;6.57;;
21420;SDS011;10871;50.144;8.428;2023-02-05T06:05:05;14.73;;;6.68;;
21420;SDS011;10871;50.144;8.428;2023-02-05T06:07:31;14.52;;;6.07;;
21420;SDS011;10871;50.144;8.428;2023-02-05T06:09:57;14.20;;;6.72;;
21420;SDS011;10871;50.144;8.428;2023-02-05T06:12:23;15.23;;;6.43;;
21420;SDS011;10871;50.144;8.428;2023-02-05T06:14:50;16.50;;;6.97;;
21420;SDS011;10871;50.144;8.428;2023-02-05T06:17:16;14.93;;;7.10;;
21420;SDS011;10871;50.144;8.428;2023-02-05T06:19:42;23.15;;;6.63;;
21420;SDS011;10871;50.144;8.428;2023-02-05T06:22:09;12.65;;;5.80;;
21420;SDS011;10871;50.144;8.428;2023-02-05T06:24:35;12.65;;;6.22;;
21420;SDS011;10871;50.144;8.428;2023-02-05T06:27:01;14.25;;;6.20;;
21420;SDS011;10871;50.144;8.428;2023-02-05T06:29:28;14.85;;;6.75;;
21420;SDS011;10871;50.144;8.428;2023-02-05T06:31:54;15.13;;;6.28;;
21420;SDS011;10871;50.144;8.428;2023-02-05T06:34:20;17.42;;;6.00;;
21420;SDS011;10871;50.144;8.428;2023-02-05T06:36:46;19.35;;;7.03;;
21420;SDS011;10871;50.144;8.428;2023-02-05T06:39:13;16.63;;;7.15;;
21420;SDS011;10871;50.144;8.428;2023-02-05T06:41:39;17.25;;;6.97;;
21420;SDS011;10871;50.144;8.428;2023-02-05T06:44:06;17.35;;;7.72;;
21420;SDS011;10871;50.144;8.428;2023-02-05T06:46:32;15.10;;;8.15;;
21420;SDS011;10871;50.144;8.428;2023-02-05T06:48:58;15.40;;;7.00;;
21420;SDS011;10871;50.144;8.428;2023-02-05T06:51:25;18.17;;;7.25;;
21420;SDS011;10871;50.144;8.428;2023-02-05T06:53:51;16.02;;;8.30;;
21420;SDS011;10871;50.144;8.428;2023-02-05T06:56:20;19.02;;;8.25;;
21420;SDS011;10871;50.144;8.428;2023-02-05T06:58:46;21.75;;;8.68;;
21420;SDS011;10871;50.144;8.428;2023-02-05T07:01:12;17.70;;;8.75;;
21420;SDS011;10871;50.144;8.428;2023-02-05T07:03:39;21.48;;;9.40;;
21420;SDS011;10871;50.144;8.428;2023-02-05T07:06:05;18.67;;;9.30;;
21420;SDS011;10871;50.144;8.428;2023-02-05T07:08:32;18.98;;;10.60;;
21420;SDS011;10871;50.144;8.428;2023-02-05T07:10:59;26.70;;;11.55;;
21420;SDS011;10871;50.144;8.428;2023-02-05T07:13:25;30.10;;;12.27;;
21420;SDS011;10871;50.144;8.428;2023-02-05T07:15:52;34.92;;;13.85;;
21420;SDS011;10871;50.144;8.428;2023-02-05T07:18:18;26.38;;;13.68;;
21420;SDS011;10871;50.144;8.428;2023-02-05T07:20:44;28.40;;;15.27;;
21420;SDS011;10871;50.144;8.428;2023-02-05T07:23:11;29.15;;;16.25;;
21420;SDS011;10871;50.144;8.428;2023-02-05T07:25:37;28.45;;;15.73;;
21420;SDS011;10871;50.144;8.428;2023-02-05T07:28:07;30.70;;;15.75;;
21420;SDS011;10871;50.144;8.428;2023-02-05T07:30:34;28.08;;;16.55;;
21420;SDS011;10871;50.144;8.428;2023-02-05T07:33:00;31.75;;;17.92;;
21420;SDS011;10871;50.144;8.428;2023-02-05T07:35:29;39.15;;;19.67;;
21420;SDS011;10871;50.144;8.428;2023-02-05T07:37:55;35.13;;;18.75;;
21420;SDS011;10871;50.144;8.428;2023-02-05T07:40:21;39.83;;;19.40;;
21420;SDS011;10871;50.144;8.428;2023-02-05T07:42:48;45.95;;;19.35;;
21420;SDS011;10871;50.144;8.428;2023-02-05T07:45:14;33.58;;;18.85;;
21420;SDS011;10871;50.144;8.428;2023-02-05T07:47:40;45.35;;;19.70;;
21420;SDS011;10871;50.144;8.428;2023-02-05T07:50:07;36.38;;;19.10;;
21420;SDS011;10871;50.144;8.428;2023-02-05T07:52:33;39.22;;;18.80;;
21420;SDS011;10871;50.144;8.428;2023-02-05T07:55:00;37.13;;;19.33;;
21420;SDS011;10871;50.144;8.428;2023-02-05T07:57:26;37.47;;;19.50;;
21420;SDS011;10871;50.144;8.428;2023-02-05T07:59:52;37.97;;;20.25;;
21420;SDS011;10871;50.144;8.428;2023-02-05T08:02:19;38.25;;;20.23;;
21420;SDS011;10871;50.144;8.428;2023-02-05T08:04:45;42.63;;;21.58;;
21420;SDS011;10871;50.144;8.428;2023-02-05T08:07:12;43.85;;;19.95;;
21420;SDS011;10871;50.144;8.428;2023-02-05T08:09:38;45.17;;;20.10;;
21420;SDS011;10871;50.144;8.428;2023-02-05T08:12:05;44.60;;;20.40;;
21420;SDS011;10871;50.144;8.428;2023-02-05T08:14:31;38.38;;;19.75;;
21420;SDS011;10871;50.144;8.428;2023-02-05T08:16:58;40.42;;;20.77;;
21420;SDS011;10871;50.144;8.428;2023-02-05T08:19:24;49.35;;;21.95;;
21420;SDS011;10871;50.144;8.428;2023-02-05T08:21:50;47.67;;;20.25;;
21420;SDS011;10871;50.144;8.428;2023-02-05T08:24:17;60.03;;;22.80;;
21420;SDS011;10871;50.144;8.428;2023-02-05T08:26:43;50.97;;;22.85;;
21420;SDS011;10871;50.144;8.428;2023-02-05T08:29:10;54.92;;;23.98;;
21420;SDS011;10871;50.144;8.428;2023-02-05T08:31:36;51.50;;;22.40;;
21420;SDS011;10871;50.144;8.428;2023-02-05T08:34:03;49.42;;;21.75;;
21420;SDS011;10871;50.144;8.428;2023-02-05T08:36:30;51.22;;;21.23;;
21420;SDS011;10871;50.144;8.428;2023-02-05T08:38:56;60.53;;;23.05;;
21420;SDS011;10871;50.144;8.428;2023-02-05T08:41:22;57.88;;;23.48;;
21420;SDS011;10871;50.144;8.428;2023-02-05T08:43:49;50.00;;;23.63;;
21420;SDS011;10871;50.144;8.428;2023-02-05T08:46:18;55.80;;;23.20;;
21420;SDS011;10871;50.144;8.428;2023-02-05T08:48:45;51.42;;;22.70;;
21420;SDS011;10871;50.144;8.428;2023-02-05T08:51:12;46.85;;;21.90;;
21420;SDS011;10871;50.144;8.428;2023-02-05T08:53:39;47.97;;;21.13;;
21420;SDS011;10871;50.144;8.428;2023-02-05T08:56:05;43.78;;;20.52;;
21420;SDS011;10871;50.144;8.428;2023-02-05T08:58:34;35.50;;;18.52;;
21420;SDS011;10871;50.144;8.428;2023-02-05T09:01:10;41.55;;;20.50;;
21420;SDS011;10871;50.144;8.428;2023-02-05T09:03:37;36.28;;;20.27;;
21420;SDS011;10871;50.144;8.428;2023-02-05T09:06:07;40.80;;;20.15;;
21420;SDS011;10871;50.144;8.428;2023-02-05T09:08:34;43.50;;;19.95;;
21420;SDS011;10871;50.144;8.428;2023-02-05T09:11:00;37.22;;;19.05;;
21420;SDS011;10871;50.144;8.428;2023-02-05T09:13:27;40.15;;;19.42;;
21420;SDS011;10871;50.144;8.428;2023-02-05T09:15:53;37.90;;;19.33;;
21420;SDS011;10871;50.144;8.428;2023-02-05T09:18:20;39.45;;;20.70;;
21420;SDS011;10871;50.144;8.428;2023-02-05T09:20:47;45.78;;;22.05;;
21420;SDS011;10871;50.144;8.428;2023-02-05T09:23:14;36.22;;;19.90;;
21420;SDS011;10871;50.144;8.428;2023-02-05T09:25:41;38.05;;;20.67;;
21420;SDS011;10871;50.144;8.428;2023-02-05T09:28:08;44.58;;;21.10;;
21420;SDS011;10871;50.144;8.428;2023-02-05T09:30:35;35.75;;;19.67;;
21420;SDS011;10871;50.144;8.428;2023-02-05T09:33:01;41.90;;;18.85;;
21420;SDS011;10871;50.144;8.428;2023-02-05T09:35:28;37.10;;;18.45;;
21420;SDS011;10871;50.144;8.428;2023-02-05T09:37:56;38.10;;;19.08;;
21420;SDS011;10871;50.144;8.428;2023-02-05T09:40:23;43.70;;;20.75;;
21420;SDS011;10871;50.144;8.428;2023-02-05T09:43:01;38.08;;;18.15;;
21420;SDS011;10871;50.144;8.428;2023-02-05T09:48:20;40.25;;;18.17;;
21420;SDS011;10871;50.144;8.428;2023-02-05T09:50:50;35.60;;;18.27;;
21420;SDS011;10871;50.144;8.428;2023-02-05T09:53:18;35.97;;;19.45;;
21420;SDS011;10871;50.144;8.428;2023-02-05T09:55:46;34.90;;;18.50;;
21420;SDS011;10871;50.144;8.428;2023-02-05T09:58:17;39.97;;;19.65;;
21420;SDS011;10871;50.144;8.428;2023-02-05T10:00:52;35.92;;;19.08;;
21420;SDS011;10871;50.144;8.428;2023-02-05T10:03:30;36.90;;;19.38;;
21420;SDS011;10871;50.144;8.428;2023-02-05T10:08:35;34.03;;;18.17;;
21420;SDS011;10871;50.144;8.428;2023-02-05T10:11:05;33.75;;;19.17;;
21420;SDS011;10871;50.144;8.428;2023-02-05T10:13:41;23.02;;;13.85;;
21420;SDS011;10871;50.144;8.428;2023-02-05T10:16:25;34.00;;;17.55;;
21420;SDS011;10871;50.144;8.428;2023-02-05T10:21:29;31.35;;;17.85;;
21420;SDS011;10871;50.144;8.428;2023-02-05T10:26:30;34.20;;;17.10;;
21420;SDS011;10871;50.144;8.428;2023-02-05T10:29:03;32.90;;;16.90;;
21420;SDS011;10871;50.144;8.428;2023-02-05T10:36:45;24.73;;;14.82;;
21420;SDS011;10871;50.144;8.428;2023-02-05T10:39:17;24.80;;;14.63;;
21420;SDS011;10871;50.144;8.428;2023-02-05T10:41:45;25.95;;;15.27;;
21420;SDS011;10871;50.144;8.428;2023-02-05T10:44:36;23.63;;;15.25;;
21420;SDS011;10871;50.144;8.428;2023-02-05T10:47:03;26.17;;;15.05;;
21420;SDS011;10871;50.144;8.428;2023-02-05T10:49:35;29.77;;;14.52;;
21420;SDS011;10871;50.144;8.428;2023-02-05T10:52:03;26.38;;;14.82;;
21420;SDS011;10871;50.144;8.428;2023-02-05T10:54:30;25.45;;;14.60;;
21420;SDS011;10871;50.144;8.428;2023-02-05T10:56:57;25.55;;;15.02;;
21420;SDS011;10871;50.144;8.428;2023-02-05T10:59:24;29.75;;;18.73;;
21420;SDS011;10871;50.144;8.428;2023-02-05T11:01:53;36.95;;;21.27;;
21420;SDS011;10871;50.144;8.428;2023-02-05T11:04:41;47.65;;;24.25;;
21420;SDS011;10871;50.144;8.428;2023-02-05T11:07:12;37.90;;;23.45;;
21420;SDS011;10871;50.144;8.428;2023-02-05T11:09:39;39.22;;;22.80;;
21420;SDS011;10871;50.144;8.428;2023-02-05T11:12:13;39.63;;;23.60;;
21420;SDS011;10871;50.144;8.428;2023-02-05T11:14:44;37.92;;;21.67;;
21420;SDS011;10871;50.144;8.428;2023-02-05T11:17:21;41.00;;;23.65;;
21420;SDS011;10871;50.144;8.428;2023-02-05T11:19:53;33.42;;;21.45;;
21420;SDS011;10871;50.144;8.428;2023-02-05T11:25:03;34.85;;;22.48;;
21420;SDS011;10871;50.144;8.428;2023-02-05T11:27:30;34.20;;;21.17;;
21420;SDS011;10871;50.144;8.428;2023-02-05T11:29:58;34.45;;;19.88;;
21420;SDS011;10871;50.144;8.428;2023-02-05T11:32:40;28.60;;;19.88;;
21420;SDS011;10871;50.144;8.428;2023-02-05T11:35:11;36.25;;;21.20;;
21420;SDS011;10871;50.144;8.428;2023-02-05T11:37:41;32.92;;;20.75;;
21420;SDS011;10871;50.144;8.428;2023-02-05T11:40:16;32.72;;;20.65;;
21420;SDS011;10871;50.144;8.428;2023-02-05T11:42:46;32.45;;;20.65;;
21420;SDS011;10871;50.144;8.428;2023-02-05T11:45:16;31.58;;;19.73;;
21420;SDS011;10871;50.144;8.428;2023-02-05T11:47:45;30.60;;;19.95;;
21420;SDS011;10871;50.144;8.428;2023-02-05T11:50:22;33.10;;;20.38;;
21420;SDS011;10871;50.144;8.428;2023-02-05T11:52:49;31.35;;;19.92;;
21420;SDS011;10871;50.144;8.428;2023-02-05T11:55:23;27.70;;;18.65;;
21420;SDS011;10871;50.144;8.428;2023-02-05T11:57:56;28.52;;;18.77;;
21420;SDS011;10871;50.144;8.428;2023-02-05T12:00:23;29.88;;;19.40;;
21420;SDS011;10871;50.144;8.428;2023-02-05T12:02:49;29.23;;;20.05;;
21420;SDS011;10871;50.144;8.428;2023-02-05T12:05:36;27.38;;;19.10;;
21420;SDS011;10871;50.144;8.428;2023-02-05T12:08:07;31.33;;;19.52;;
21420;SDS011;10871;50.144;8.428;2023-02-05T12:10:39;31.48;;;18.38;;
21420;SDS011;10871;50.144;8.428;2023-02-05T12:15:40;27.17;;;18.85;;
21420;SDS011;10871;50.144;8.428;2023-02-05T12:20:45;39.28;;;21.65;;
21420;SDS011;10871;50.144;8.428;2023-02-05T12:36:42;42.10;;;22.25;;
21420;SDS011;10871;50.144;8.428;2023-02-05T12:39:35;41.83;;;23.02;;
21420;SDS011;10871;50.144;8.428;2023-02-05T12:44:51;35.30;;;23.45;;
21420;SDS011;10871;50.144;8.428;2023-02-05T12:50:02;41.33;;;24.40;;
21420;SDS011;10871;50.144;8.428;2023-02-05T12:52:41;39.05;;;24.98;;
21420;SDS011;10871;50.144;8.428;2023-02-05T12:57:43;43.03;;;25.65;;
21420;SDS011;10871;50.144;8.428;2023-02-05T13:00:12;40.60;;;25.90;;
21420;SDS011;10871;50.144;8.428;2023-02-05T13:02:53;36.67;;;24.77;;
21420;SDS011;10871;50.144;8.428;2023-02-05T13:05:40;37.95;;;23.92;;
21420;SDS011;10871;50.144;8.428;2023-02-05T13:10:49;41.83;;;24.27;;
21420;SDS011;10871;50.144;8.428;2023-02-05T13:13:19;41.20;;;26.25;;
21420;SDS011;10871;50.144;8.428;2023-02-05T13:15:47;43.75;;;27.15;;
21420;SDS011;10871;50.144;8.428;2023-02-05T13:18:19;42.20;;;26.08;;
21420;SDS011;10871;50.144;8.428;2023-02-05T13:20:57;42.80;;;26.20;;
21420;SDS011;10871;50.144;8.428;2023-02-05T13:23:44;42.95;;;25.90;;
21420;SDS011;10871;50.144;8.428;2023-02-05T13:26:30;39.17;;;23.92;;
21420;SDS011;10871;50.144;8.428;2023-02-05T13:29:16;41.25;;;24.58;;
21420;SDS011;10871;50.144;8.428;2023-02-05T13:31:50;39.72;;;24.15;;
21420;SDS011;10871;50.144;8.428;2023-02-05T13:34:20;41.15;;;25.90;;
21420;SDS011;10871;50.144;8.428;2023-02-05T13:48:07;41.40;;;23.77;;
21420;SDS011;10871;50.144;8.428;2023-02-05T13:58:10;36.47;;;23.55;;
21420;SDS011;10871;50.144;8.428;2023-02-05T14:00:39;42.97;;;22.90;;
21420;SDS011;10871;50.144;8.428;2023-02-05T14:03:06;36.72;;;23.80;;
21420;SDS011;10871;50.144;8.428;2023-02-05T14:05:35;37.72;;;24.80;;
21420;SDS011;10871;50.144;8.428;2023-02-05T14:08:02;37.03;;;22.90;;
21420;SDS011;10871;50.144;8.428;2023-02-05T14:10:31;37.78;;;23.73;;
21420;SDS011;10871;50.144;8.428;2023-02-05T14:15:43;41.58;;;23.80;;
21420;SDS011;10871;50.144;8.428;2023-02-05T14:18:10;36.45;;;22.42;;
21420;SDS011;10871;50.144;8.428;2023-02-05T14:20:40;39.75;;;23.85;;
21420;SDS011;10871;50.144;8.428;2023-02-05T14:23:52;35.22;;;22.65;;
21420;SDS011;10871;50.144;8.428;2023-02-05T14:30:58;32.25;;;21.73;;
21420;SDS011;10871;50.144;8.428;2023-02-05T14:33:40;35.25;;;22.75;;
21420;SDS011;10871;50.144;8.428;2023-02-05T14:38:43;36.90;;;23.65;;
21420;SDS011;10871;50.144;8.428;2023-02-05T14:41:11;37.50;;;23.42;;
21420;SDS011;10871;50.144;8.428;2023-02-05T14:43:42;31.30;;;21.23;;
21420;SDS011;10871;50.144;8.428;2023-02-05T14:48:56;39.08;;;23.27;;
21420;SDS011;10871;50.144;8.428;2023-02-05T14:51:30;63.78;;;36.22;;
21420;SDS011;10871;50.144;8.428;2023-02-05T14:54:01;38.90;;;24.38;;
21420;SDS011;10871;50.144;8.428;2023-02-05T14:56:30;39.10;;;23.98;;
21420;SDS011;10871;50.144;8.428;2023-02-05T14:59:00;41.15;;;24.92;;
21420;SDS011;10871;50.144;8.428;2023-02-05T15:01:39;42.40;;;26.88;;
21420;SDS011;10871;50.144;8.428;2023-02-05T15:04:14;44.35;;;27.50;;
21420;SDS011;10871;50.144;8.428;2023-02-05T15:06:42;48.80;;;26.90;;
21420;SDS011;10871;50.144;8.428;2023-02-05T15:09:16;44.72;;;26.23;;
21420;SDS011;10871;50.144;8.428;2023-02-05T15:14:39;43.05;;;27.33;;
21420;SDS011;10871;50.144;8.428;2023-02-05T15:19:39;44.90;;;26.98;;
21420;SDS011;10871;50.144;8.428;2023-02-05T15:22:10;39.83;;;25.88;;
21420;SDS011;10871;50.144;8.428;2023-02-05T15:24:40;52.92;;;31.13;;
21420;SDS011;10871;50.144;8.428;2023-02-05T15:27:12;45.97;;;29.27;;
21420;SDS011;10871;50.144;8.428;2023-02-05T15:29:40;42.60;;;26.33;;
21420;SDS011;10871;50.144;8.428;2023-02-05T15:32:24;40.42;;;25.95;;
21420;SDS011;10871;50.144;8.428;2023-02-05T15:34:57;33.35;;;20.25;;
21420;SDS011;10871;50.144;8.428;2023-02-05T15:37:28;34.53;;;20.17;;
21420;SDS011;10871;50.144;8.428;2023-02-05T15:40:06;29.33;;;18.80;;
21420;SDS011;10871;50.144;8.428;2023-02-05T15:42:37;29.00;;;18.60;;
21420;SDS011;10871;50.144;8.428;2023-02-05T15:50:28;34.50;;;20.60;;
21420;SDS011;10871;50.144;8.428;2023-02-05T15:52:55;30.20;;;20.70;;
21420;SDS011;10871;50.144;8.428;2023-02-05T15:55:22;28.85;;;19.00;;
21420;SDS011;10871;50.144;8.428;2023-02-05T15:57:49;27.08;;;18.35;;
21420;SDS011;10871;50.144;8.428;2023-02-05T16:00:21;22.73;;;16.23;;
21420;SDS011;10871;50.144;8.428;2023-02-05T16:02:52;22.70;;;15.90;;
21420;SDS011;10871;50.144;8.428;2023-02-05T16:05:19;27.75;;;18.40;;
21420;SDS011;10871;50.144;8.428;2023-02-05T16:07:46;21.75;;;14.55;;
21420;SDS011;10871;50.144;8.428;2023-02-05T16:10:20;29.00;;;19.38;;
21420;SDS011;10871;50.144;8.428;2023-02-05T16:13:00;29.27;;;19.52;;
21420;SDS011;10871;50.144;8.428;2023-02-05T16:15:28;33.47;;;21.33;;
21420;SDS011;10871;50.144;8.428;2023-02-05T16:17:55;34.88;;;22.52;;
21420;SDS011;10871;50.144;8.428;2023-02-05T16:20:28;38.72;;;23.08;;
21420;SDS011;10871;50.144;8.428;2023-02-05T16:22:56;36.42;;;23.33;;
21420;SDS011;10871;50.144;8.428;2023-02-05T16:27:53;35.17;;;23.05;;
21420;SDS011;10871;50.144;8.428;2023-02-05T16:32:50;41.45;;;23.73;;
21420;SDS011;10871;50.144;8.428;2023-02-05T16:37:44;42.42;;;25.80;;
21420;SDS011;10871;50.144;8.428;2023-02-05T16:40:11;39.85;;;24.17;;